createdAt,value
2022-09-28T00:00:14.022Z,6.8
2022-09-28T00:01:20.186Z,6.9
2022-09-28T00:02:27.345Z,6.9
2022-09-28T00:03:34.291Z,6.9
2022-09-28T00:05:48.583Z,6.9
2022-09-28T00:06:55.156Z,6.9
2022-09-28T00:08:02.377Z,6.9
2022-09-28T00:09:09.415Z,6.9
2022-09-28T00:10:16.502Z,6.8
2022-09-28T00:11:23.523Z,6.8
2022-09-28T00:12:30.160Z,6.8
2022-09-28T00:13:37.417Z,6.8
2022-09-28T00:14:44.348Z,6.8
2022-09-28T00:15:51.482Z,6.8
2022-09-28T00:16:57.993Z,6.8
2022-09-28T00:18:05.150Z,6.8
2022-09-28T00:19:12.399Z,6.8
2022-09-28T00:20:19.395Z,6.8
2022-09-28T00:22:33.049Z,6.8
2022-09-28T00:23:40.157Z,6.8
2022-09-28T00:24:47.335Z,6.8
2022-09-28T00:25:54.321Z,6.8
2022-09-28T00:27:01.491Z,6.9
2022-09-28T00:28:08.044Z,6.8
2022-09-28T00:29:15.207Z,6.8
2022-09-28T00:30:22.311Z,6.8
2022-09-28T00:31:29.516Z,6.8
2022-09-28T00:33:43.620Z,6.7
2022-09-28T00:34:50.212Z,6.7
2022-09-28T00:35:58.362Z,6.7
2022-09-28T00:37:04.339Z,6.7
2022-09-28T00:38:11.552Z,6.7
2022-09-28T00:39:18.241Z,6.7
2022-09-28T00:40:25.253Z,6.7
2022-09-28T00:41:32.811Z,6.7
2022-09-28T00:42:39.441Z,6.7
2022-09-28T00:43:46.482Z,6.7
2022-09-28T00:44:53.154Z,6.7
2022-09-28T00:46:00.294Z,6.8
2022-09-28T00:47:07.324Z,6.8
2022-09-28T00:48:14.348Z,6.8
2022-09-28T00:49:21.542Z,6.9
2022-09-28T00:50:28.106Z,6.9
2022-09-28T00:51:35.191Z,6.9
2022-09-28T00:52:42.289Z,6.9
2022-09-28T00:53:49.431Z,6.9
2022-09-28T00:54:56.592Z,6.8
2022-09-28T00:56:03.624Z,6.9
2022-09-28T00:57:10.181Z,6.9
2022-09-28T00:58:17.322Z,6.8
2022-09-28T00:59:24.446Z,6.8
2022-09-28T01:00:31.647Z,6.8
2022-09-28T01:01:38.181Z,6.7
2022-09-28T01:02:45.209Z,6.7
2022-09-28T01:03:52.324Z,6.7
2022-09-28T01:04:59.533Z,6.6
2022-09-28T01:06:06.551Z,6.6
2022-09-28T01:07:13.058Z,6.5
2022-09-28T01:08:20.280Z,6.6
2022-09-28T01:09:27.323Z,6.6
2022-09-28T01:10:34.419Z,6.6
2022-09-28T01:11:41.724Z,6.6
2022-09-28T01:12:48.108Z,6.5
2022-09-28T01:13:55.214Z,6.5
2022-09-28T01:15:02.314Z,6.4
2022-09-28T01:16:09.575Z,6.4
2022-09-28T01:17:16.520Z,6.4
2022-09-28T01:18:23.655Z,6.3
2022-09-28T01:19:30.264Z,6.3
2022-09-28T01:20:37.362Z,6.2
2022-09-28T01:21:45.540Z,6.2
2022-09-28T01:22:52.096Z,6.2
2022-09-28T01:23:58.131Z,6.2
2022-09-28T01:26:12.358Z,6.1
2022-09-28T01:28:26.626Z,6.1
2022-09-28T01:29:34.072Z,6.1
2022-09-28T01:30:40.334Z,6.2
2022-09-28T01:31:47.486Z,6.1
2022-09-28T01:32:54.419Z,6.1
2022-09-28T01:34:01.600Z,6.1
2022-09-28T01:35:08.155Z,6
2022-09-28T01:36:15.204Z,6
2022-09-28T01:37:22.360Z,6
2022-09-28T01:38:29.483Z,6
2022-09-28T01:39:36.581Z,6
2022-09-28T01:40:43.153Z,6
2022-09-28T01:41:50.281Z,5.9
2022-09-28T01:42:57.501Z,5.9
2022-09-28T01:44:04.452Z,5.9
2022-09-28T01:45:11.592Z,5.9
2022-09-28T01:46:18.258Z,5.9
2022-09-28T01:47:25.252Z,5.9
2022-09-28T01:48:32.503Z,5.9
2022-09-28T01:49:39.512Z,5.9
2022-09-28T01:50:46.601Z,5.9
2022-09-28T01:51:53.163Z,5.9
2022-09-28T01:53:00.291Z,5.8
2022-09-28T01:54:07.772Z,5.7
2022-09-28T01:55:14.492Z,5.7
2022-09-28T01:56:21.059Z,5.7
2022-09-28T01:57:28.173Z,5.6
2022-09-28T01:58:35.236Z,5.6
2022-09-28T01:59:43.451Z,5.6
2022-09-28T02:00:49.551Z,5.6
2022-09-28T02:01:56.170Z,5.6
2022-09-28T02:04:10.798Z,5.7
2022-09-28T02:05:17.483Z,5.7
2022-09-28T02:06:24.451Z,5.7
2022-09-28T02:07:31.127Z,5.7
2022-09-28T02:08:38.180Z,5.7
2022-09-28T02:09:45.249Z,5.7
2022-09-28T02:10:52.362Z,5.7
2022-09-28T02:11:59.511Z,5.7
2022-09-28T02:13:06.152Z,5.6
2022-09-28T02:14:13.224Z,5.6
2022-09-28T02:15:20.392Z,5.6
2022-09-28T02:16:27.464Z,5.7
2022-09-28T02:17:34.561Z,5.6
2022-09-28T02:18:41.131Z,5.6
2022-09-28T02:19:48.200Z,5.6
2022-09-28T02:20:55.261Z,5.6
2022-09-28T02:22:02.376Z,5.6
2022-09-28T02:23:09.514Z,5.6
2022-09-28T02:24:20.657Z,5.6
2022-09-28T02:25:23.203Z,5.6
2022-09-28T02:26:30.403Z,5.7
2022-09-28T02:27:37.415Z,5.7
2022-09-28T02:29:51.617Z,5.7
2022-09-28T02:32:05.287Z,5.8
2022-09-28T02:33:12.455Z,5.7
2022-09-28T02:34:19.511Z,5.7
2022-09-28T02:35:26.110Z,5.7
2022-09-28T02:36:33.212Z,5.7
2022-09-28T02:37:40.333Z,5.7
2022-09-28T02:38:47.472Z,5.7
2022-09-28T02:39:54.501Z,5.7
2022-09-28T02:41:01.213Z,5.7
2022-09-28T02:42:08.256Z,5.7
2022-09-28T02:43:15.302Z,5.8
2022-09-28T02:44:22.470Z,5.8
2022-09-28T02:45:30.116Z,5.8
2022-09-28T02:46:36.266Z,5.7
2022-09-28T02:47:44.252Z,5.7
2022-09-28T02:49:04.866Z,5.8
2022-09-28T02:49:57.530Z,5.7
2022-09-28T02:51:04.558Z,5.8
2022-09-28T02:52:12.163Z,5.8
2022-09-28T02:53:18.289Z,5.8
2022-09-28T02:54:25.332Z,5.8
2022-09-28T02:56:39.567Z,5.7
2022-09-28T02:57:46.491Z,5.8
2022-09-28T02:58:53.392Z,5.8
2022-09-28T03:00:00.389Z,5.9
2022-09-28T03:01:07.637Z,5.9
2022-09-28T03:02:14.620Z,5.9
2022-09-28T03:03:21.271Z,5.9
2022-09-28T03:04:28.312Z,6
2022-09-28T03:05:35.339Z,5.9
2022-09-28T03:06:42.493Z,5.9
2022-09-28T03:07:49.624Z,5.9
2022-09-28T03:08:56.212Z,5.9
2022-09-28T03:10:03.226Z,5.9
2022-09-28T03:11:10.391Z,5.9
2022-09-28T03:12:17.521Z,5.9
2022-09-28T03:13:25.236Z,5.9
2022-09-28T03:14:31.213Z,5.9
2022-09-28T03:15:38.274Z,6
2022-09-28T03:16:45.449Z,6
2022-09-28T03:17:52.462Z,6
2022-09-28T03:18:59.681Z,6
2022-09-28T03:20:06.212Z,6
2022-09-28T03:21:13.272Z,6
2022-09-28T03:22:20.424Z,6
2022-09-28T03:23:27.490Z,6
2022-09-28T03:24:34.141Z,6
2022-09-28T03:25:41.186Z,6
2022-09-28T03:27:55.363Z,6.1
2022-09-28T03:29:02.520Z,6.1
2022-09-28T03:30:09.678Z,6.1
2022-09-28T03:31:16.330Z,6.1
2022-09-28T03:33:29.920Z,6.2
2022-09-28T03:34:37.532Z,6.2
2022-09-28T03:35:44.162Z,6.2
2022-09-28T03:36:51.182Z,6.2
2022-09-28T03:37:58.349Z,6.3
2022-09-28T03:39:05.413Z,6.3
2022-09-28T03:40:12.522Z,6.3
2022-09-28T03:41:19.610Z,6.3
2022-09-28T03:42:26.261Z,6.4
2022-09-28T03:43:33.522Z,6.4
2022-09-28T03:44:40.439Z,6.4
2022-09-28T03:45:47.595Z,6.4
2022-09-28T03:46:54.213Z,6.4
2022-09-28T03:48:01.303Z,6.4
2022-09-28T03:49:08.329Z,6.4
2022-09-28T03:50:15.484Z,6.4
2022-09-28T03:51:23.082Z,6.4
2022-09-28T03:52:29.111Z,6.5
2022-09-28T03:53:36.262Z,6.5
2022-09-28T03:54:48.315Z,6.6
2022-09-28T03:55:50.429Z,6.6
2022-09-28T03:56:57.527Z,6.6
2022-09-28T03:58:04.085Z,6.6
2022-09-28T03:59:11.373Z,6.6
2022-09-28T04:00:18.375Z,6.6
2022-09-28T04:02:32.648Z,6.7
2022-09-28T04:03:39.183Z,6.7
2022-09-28T04:04:46.280Z,6.7
2022-09-28T04:05:53.342Z,6.7
2022-09-28T04:07:00.463Z,6.8
2022-09-28T04:09:14.197Z,6.9
2022-09-28T04:10:21.272Z,6.9
2022-09-28T04:11:34.966Z,6.9
2022-09-28T04:12:35.444Z,6.9
2022-09-28T04:13:42.562Z,6.9
2022-09-28T04:14:49.154Z,6.9
2022-09-28T04:15:56.371Z,7
2022-09-28T04:17:03.343Z,7
2022-09-28T04:18:10.463Z,7.1
2022-09-28T04:19:17.724Z,7.1
2022-09-28T04:20:24.202Z,7.1
2022-09-28T04:21:31.293Z,7.1
2022-09-28T04:22:38.399Z,7.1
2022-09-28T04:24:52.577Z,7.2
2022-09-28T04:25:59.215Z,7.2
2022-09-28T04:27:06.292Z,7.2
2022-09-28T04:28:13.393Z,7.2
2022-09-28T04:30:27.632Z,7.3
2022-09-28T04:31:34.318Z,7.3
2022-09-28T04:32:41.310Z,7.4
2022-09-28T04:33:48.376Z,7.4
2022-09-28T04:34:55.491Z,7.4
2022-09-28T04:37:09.136Z,7.4
2022-09-28T04:38:26.802Z,7.4
2022-09-28T04:39:23.388Z,7.5
2022-09-28T04:40:30.568Z,7.5
2022-09-28T04:41:37.065Z,7.5
2022-09-28T04:42:44.145Z,7.6
2022-09-28T04:43:51.352Z,7.6
2022-09-28T04:44:58.413Z,7.6
2022-09-28T04:46:05.559Z,7.6
2022-09-28T04:47:12.114Z,7.6
2022-09-28T04:48:19.212Z,7.6
2022-09-28T04:50:33.359Z,7.7
2022-09-28T04:51:40.562Z,7.7
2022-09-28T04:52:47.605Z,7.7
2022-09-28T04:53:54.181Z,7.7
2022-09-28T04:55:01.820Z,7.7
2022-09-28T04:56:08.484Z,7.7
2022-09-28T04:58:22.088Z,7.6
2022-09-28T04:59:32.612Z,7.7
2022-09-28T05:00:36.881Z,7.7
2022-09-28T05:01:43.407Z,7.7
2022-09-28T05:02:50.481Z,7.7
2022-09-28T05:03:57.882Z,7.7
2022-09-28T05:05:04.205Z,7.8
2022-09-28T05:06:12.817Z,7.8
2022-09-28T05:07:18.419Z,7.8
2022-09-28T05:08:25.604Z,7.8
2022-09-28T05:09:34.995Z,7.8
2022-09-28T05:10:39.259Z,7.8
2022-09-28T05:11:46.321Z,7.9
2022-09-28T05:12:53.394Z,7.9
2022-09-28T05:14:00.490Z,8
2022-09-28T05:15:07.587Z,7.9
2022-09-28T05:16:14.264Z,7.9
2022-09-28T05:17:21.319Z,8
2022-09-28T05:18:28.418Z,8
2022-09-28T05:19:35.593Z,8
2022-09-28T05:20:42.112Z,8
2022-09-28T05:21:49.261Z,8.1
2022-09-28T05:22:56.355Z,8.1
2022-09-28T05:24:03.440Z,8.1
2022-09-28T05:25:10.549Z,8.1
2022-09-28T05:26:17.211Z,8.1
2022-09-28T05:27:24.244Z,8.2
2022-09-28T05:28:31.422Z,8.2
2022-09-28T05:29:38.521Z,8.1
2022-09-28T05:31:52.166Z,8.3
2022-09-28T05:32:59.382Z,8.4
2022-09-28T05:34:06.317Z,8.4
2022-09-28T05:35:13.484Z,8.5
2022-09-28T05:36:20.630Z,8.5
2022-09-28T05:37:27.186Z,8.5
2022-09-28T05:38:34.305Z,8.6
2022-09-28T05:40:48.573Z,8.7
2022-09-28T05:41:55.592Z,8.7
2022-09-28T05:43:02.195Z,8.7
2022-09-28T05:44:09.297Z,8.7
2022-09-28T05:45:16.414Z,8.7
2022-09-28T05:46:23.560Z,8.8
2022-09-28T05:47:30.055Z,8.8
2022-09-28T05:48:37.211Z,8.8
2022-09-28T05:49:44.292Z,8.8
2022-09-28T05:50:51.402Z,8.8
2022-09-28T05:53:05.079Z,8.8
2022-09-28T05:54:12.168Z,8.8
2022-09-28T05:55:19.336Z,8.8
2022-09-28T05:56:26.481Z,8.8
2022-09-28T05:57:33.482Z,8.8
2022-09-28T05:58:41.142Z,8.9
2022-09-28T06:00:54.386Z,8.8
2022-09-28T06:02:01.445Z,8.9
2022-09-28T06:03:09.449Z,9
2022-09-28T06:04:15.586Z,9
2022-09-28T06:05:22.385Z,9
2022-09-28T06:06:29.367Z,9
2022-09-28T06:07:36.444Z,9
2022-09-28T06:08:43.522Z,9
2022-09-28T06:09:50.123Z,9.1
2022-09-28T06:10:57.213Z,9
2022-09-28T06:13:11.472Z,9
2022-09-28T06:14:18.674Z,9
2022-09-28T06:15:25.102Z,9.1
2022-09-28T06:16:32.316Z,9
2022-09-28T06:17:39.340Z,9.1
2022-09-28T06:18:46.491Z,9.1
2022-09-28T06:19:53.502Z,9
2022-09-28T06:21:00.225Z,9
2022-09-28T06:22:07.211Z,9.1
2022-09-28T06:23:14.303Z,9
2022-09-28T06:24:21.589Z,9
2022-09-28T06:25:28.518Z,9
2022-09-28T06:26:35.123Z,9
2022-09-28T06:28:50.200Z,9
2022-09-28T06:29:56.563Z,9
2022-09-28T06:31:03.520Z,9
2022-09-28T06:32:10.105Z,9
2022-09-28T06:33:17.343Z,9.1
2022-09-28T06:34:24.311Z,9.1
2022-09-28T06:35:31.640Z,9.1
2022-09-28T06:36:38.571Z,9
2022-09-28T06:37:45.130Z,9
2022-09-28T06:38:52.251Z,9.1
2022-09-28T06:39:59.380Z,9
2022-09-28T06:41:06.477Z,9
2022-09-28T06:42:13.572Z,9
2022-09-28T06:44:27.362Z,9
2022-09-28T06:45:34.299Z,9.1
2022-09-28T06:46:41.515Z,9
2022-09-28T06:47:48.604Z,9
2022-09-28T06:48:55.147Z,9
2022-09-28T06:50:02.311Z,9.1
2022-09-28T06:51:09.408Z,9
2022-09-28T06:52:16.484Z,9.1
2022-09-28T06:54:30.204Z,9.1
2022-09-28T06:55:37.283Z,9.1
2022-09-28T06:56:44.333Z,9.2
2022-09-28T06:57:51.485Z,9.2
2022-09-28T06:58:58.006Z,9.2
2022-09-28T07:00:05.114Z,9.2
2022-09-28T07:01:12.309Z,9.2
2022-09-28T07:02:19.424Z,9.2
2022-09-28T07:03:26.513Z,9.2
2022-09-28T07:04:33.014Z,9.2
2022-09-28T07:05:40.193Z,9.2
2022-09-28T07:06:47.359Z,9.2
2022-09-28T07:07:54.333Z,9.3
2022-09-28T07:09:16.776Z,9.3
2022-09-28T07:10:08.200Z,9.3
2022-09-28T07:11:15.174Z,9.3
2022-09-28T07:12:22.319Z,9.3
2022-09-28T07:13:49.009Z,9.4
2022-09-28T07:14:46.847Z,9.4
2022-09-28T07:15:43.558Z,9.3
2022-09-28T07:18:01.154Z,9.4
2022-09-28T07:19:04.344Z,9.4
2022-09-28T07:21:25.135Z,9.4
2022-09-28T07:22:36.306Z,9.4
2022-09-28T07:23:33.655Z,9.4
2022-09-28T07:24:39.445Z,9.4
2022-09-28T07:25:46.534Z,9.4
2022-09-28T07:26:53.053Z,9.5
2022-09-28T07:28:00.154Z,9.5
2022-09-28T07:29:07.350Z,9.5
2022-09-28T07:30:14.396Z,9.5
2022-09-28T07:31:21.646Z,9.5
2022-09-28T07:32:28.180Z,9.5
2022-09-28T07:33:35.202Z,9.5
2022-09-28T07:35:49.446Z,9.6
2022-09-28T07:36:57.368Z,9.6
2022-09-28T07:38:03.118Z,9.6
2022-09-28T07:39:10.244Z,9.6
2022-09-28T07:40:17.386Z,9.6
2022-09-28T07:41:24.413Z,9.6
2022-09-28T07:42:31.682Z,9.7
2022-09-28T07:43:38.127Z,9.7
2022-09-28T07:44:45.203Z,9.7
2022-09-28T07:45:52.534Z,9.7
2022-09-28T07:48:06.662Z,9.7
2022-09-28T07:49:13.227Z,9.7
2022-09-28T07:50:20.227Z,9.7
2022-09-28T07:51:27.339Z,9.7
2022-09-28T07:52:34.452Z,9.7
2022-09-28T07:53:41.695Z,9.7
2022-09-28T07:54:48.164Z,9.7
2022-09-28T07:55:55.242Z,9.8
2022-09-28T07:57:02.813Z,9.8
2022-09-28T07:58:08.914Z,9.8
2022-09-28T07:59:16.360Z,9.8
2022-09-28T08:00:23.112Z,9.8
2022-09-28T08:01:30.283Z,9.8
2022-09-28T08:02:37.390Z,9.8
2022-09-28T08:03:44.507Z,9.8
2022-09-28T08:04:52.292Z,9.8
2022-09-28T08:17:08.145Z,10
2022-09-28T08:18:15.223Z,10
2022-09-28T08:19:22.331Z,10
2022-09-28T08:20:29.518Z,10
2022-09-28T08:21:36.043Z,10
2022-09-28T08:22:43.171Z,10.1
2022-09-28T08:23:50.313Z,10.1
2022-09-28T08:24:57.414Z,10.1
2022-09-28T08:27:11.646Z,10.1
2022-09-28T08:28:18.208Z,10.1
2022-09-28T08:29:25.281Z,10.2
2022-09-28T08:30:32.453Z,10.2
2022-09-28T08:31:39.529Z,10.2
2022-09-28T08:32:46.158Z,10.2
2022-09-28T08:33:53.139Z,10.2
2022-09-28T08:35:00.289Z,10.2
2022-09-28T08:36:07.377Z,10.2
2022-09-28T08:37:14.499Z,10.3
2022-09-28T08:38:21.123Z,10.3
2022-09-28T08:39:28.225Z,10.3
2022-09-28T08:40:35.328Z,10.3
2022-09-28T08:41:42.484Z,10.3
2022-09-28T08:42:49.523Z,10.3
2022-09-28T08:43:56.109Z,10.3
2022-09-28T08:45:03.242Z,10.4
2022-09-28T08:46:10.426Z,10.4
2022-09-28T08:47:17.399Z,10.4
2022-09-28T08:49:31.274Z,10.4
2022-09-28T08:51:45.297Z,10.4
2022-09-28T08:52:52.392Z,10.4
2022-09-28T08:53:59.014Z,10.4
2022-09-28T08:55:06.304Z,10.4
2022-09-28T08:56:16.031Z,10.4
2022-09-28T08:58:27.478Z,10.5
2022-09-28T08:59:39.873Z,10.6
2022-09-28T09:00:41.287Z,10.7
2022-09-28T09:01:48.302Z,10.8
2022-09-28T09:02:55.344Z,10.9
2022-09-28T09:04:04.347Z,10.9
2022-09-28T09:05:09.524Z,10.9
2022-09-28T09:06:18.519Z,10.9
2022-09-28T09:07:23.224Z,11
2022-09-28T09:08:30.359Z,11
2022-09-28T09:09:37.967Z,11.1
2022-09-28T09:10:44.572Z,11.1
2022-09-28T09:11:51.179Z,11.1
2022-09-28T09:12:58.352Z,11.1
2022-09-28T09:14:05.336Z,11.2
2022-09-28T09:15:12.400Z,11.2
2022-09-28T09:16:19.557Z,11.2
2022-09-28T09:17:26.162Z,11.3
2022-09-28T09:18:33.242Z,11.4
2022-09-28T09:19:40.338Z,11.4
2022-09-28T09:20:47.447Z,11.4
2022-09-28T09:21:54.033Z,11.4
2022-09-28T09:23:01.240Z,11.4
2022-09-28T09:24:08.311Z,11.4
2022-09-28T09:25:16.200Z,11.4
2022-09-28T09:26:25.279Z,11.4
2022-09-28T09:27:29.077Z,11.4
2022-09-28T09:28:36.172Z,11.4
2022-09-28T09:29:43.206Z,11.4
2022-09-28T09:30:50.529Z,11.4
2022-09-28T09:31:57.472Z,11.4
2022-09-28T09:33:03.999Z,11.4
2022-09-28T09:34:11.353Z,11.4
2022-09-28T09:35:19.676Z,11.4
2022-09-28T09:36:25.362Z,11.4
2022-09-28T09:37:32.474Z,11.4
2022-09-28T09:39:46.358Z,11.4
2022-09-28T09:40:53.335Z,11.5
2022-09-28T09:42:00.424Z,11.5
2022-09-28T09:43:07.476Z,11.5
2022-09-28T09:44:14.202Z,11.5
2022-09-28T09:45:21.267Z,11.5
2022-09-28T09:46:28.310Z,11.5
2022-09-28T09:47:35.424Z,11.5
2022-09-28T09:48:42.449Z,11.4
2022-09-28T09:50:56.247Z,11.3
2022-09-28T09:52:03.240Z,11.3
2022-09-28T09:53:10.383Z,11.2
2022-09-28T09:55:29.694Z,11.2
2022-09-28T09:56:31.175Z,11.2
2022-09-28T09:57:38.273Z,11.2
2022-09-28T09:58:45.446Z,11.2
2022-09-28T09:59:52.533Z,11.2
2022-09-28T10:00:59.170Z,11.2
2022-09-28T10:02:09.859Z,11.2
2022-09-28T10:03:13.297Z,11.3
2022-09-28T10:04:20.423Z,11.3
2022-09-28T10:05:27.551Z,11.3
2022-09-28T10:06:34.212Z,11.3
2022-09-28T10:07:43.447Z,11.4
2022-09-28T10:08:48.344Z,11.5
2022-09-28T10:09:55.411Z,11.5
2022-09-28T10:11:02.520Z,11.6
2022-09-28T10:12:09.101Z,11.6
2022-09-28T10:13:16.754Z,11.6
2022-09-28T10:14:23.325Z,11.6
2022-09-28T10:15:30.442Z,11.6
2022-09-28T10:17:44.133Z,11.6
2022-09-28T10:18:51.274Z,11.6
2022-09-28T10:21:05.422Z,11.5
2022-09-28T10:22:12.054Z,11.4
2022-09-28T10:23:19.133Z,11.3
2022-09-28T10:24:26.262Z,11.3
2022-09-28T10:25:33.280Z,11.2
2022-09-28T10:26:40.428Z,11.2
2022-09-28T10:27:47.082Z,11.1
2022-09-28T10:28:54.088Z,11
2022-09-28T10:30:01.251Z,11
2022-09-28T10:32:15.443Z,11
2022-09-28T10:33:22.060Z,11
2022-09-28T10:34:29.161Z,11
2022-09-28T10:35:36.190Z,11.1
2022-09-28T10:36:43.302Z,11.1
2022-09-28T10:37:50.492Z,11.1
2022-09-28T10:38:57.017Z,11.2
2022-09-28T10:40:04.186Z,11.2
2022-09-28T10:41:11.232Z,11.2
2022-09-28T10:42:18.385Z,11.2
2022-09-28T10:43:25.451Z,11.3
2022-09-28T10:44:32.072Z,11.3
2022-09-28T10:45:39.250Z,11.3
2022-09-28T10:46:46.273Z,11.3
2022-09-28T10:47:53.358Z,11.3
2022-09-28T10:49:00.495Z,11.4
2022-09-28T10:50:07.592Z,11.4
2022-09-28T10:51:14.111Z,11.4
2022-09-28T10:52:20.741Z,11.5
2022-09-28T10:53:28.333Z,11.4
2022-09-28T10:54:35.554Z,11.5
2022-09-28T10:55:42.082Z,11.6
2022-09-28T10:56:50.990Z,11.5
2022-09-28T10:59:03.379Z,11.5
2022-09-28T11:00:10.527Z,11.5
2022-09-28T11:02:24.211Z,11.5
2022-09-28T11:03:31.283Z,11.5
2022-09-28T11:04:38.365Z,11.5
2022-09-28T11:05:45.652Z,11.5
2022-09-28T11:06:52.145Z,11.6
2022-09-28T11:07:59.322Z,11.6
2022-09-28T11:09:06.301Z,11.7
2022-09-28T11:10:13.343Z,11.7
2022-09-28T11:11:20.498Z,11.8
2022-09-28T11:12:27.093Z,11.9
2022-09-28T11:13:34.201Z,11.9
2022-09-28T11:14:42.615Z,11.9
2022-09-28T11:15:48.432Z,11.9
2022-09-28T11:16:56.245Z,11.9
2022-09-28T11:18:02.128Z,11.9
2022-09-28T11:19:10.488Z,12
2022-09-28T11:20:16.340Z,12
2022-09-28T11:21:23.403Z,12
2022-09-28T11:22:30.035Z,12
2022-09-28T11:23:37.351Z,12
2022-09-28T11:24:44.154Z,12
2022-09-28T11:25:51.325Z,12
2022-09-28T11:26:58.393Z,11.9
2022-09-28T11:28:05.196Z,11.9
2022-09-28T11:29:12.295Z,11.9
2022-09-28T11:30:19.211Z,11.9
2022-09-28T11:31:26.366Z,11.9
2022-09-28T11:32:33.370Z,11.9
2022-09-28T11:33:40.049Z,12
2022-09-28T11:34:59.083Z,12
2022-09-28T11:35:54.314Z,12
2022-09-28T11:37:01.977Z,12
2022-09-28T11:38:08.438Z,12
2022-09-28T11:39:15.148Z,12
2022-09-28T11:40:22.207Z,12
2022-09-28T11:41:29.209Z,12
2022-09-28T11:43:43.385Z,11.9
2022-09-28T11:45:57.206Z,11.9
2022-09-28T11:47:04.183Z,11.9
2022-09-28T11:48:11.373Z,11.9
2022-09-28T11:49:18.494Z,11.8
2022-09-28T11:50:25.282Z,11.8
2022-09-28T11:51:33.429Z,11.8
2022-09-28T11:52:39.288Z,11.8
2022-09-28T11:53:46.353Z,11.8
2022-09-28T11:54:53.452Z,11.9
2022-09-28T11:56:00.095Z,11.9
2022-09-28T11:57:07.293Z,12
2022-09-28T11:58:14.245Z,12
2022-09-28T11:59:21.333Z,11.9
2022-09-28T12:00:29.016Z,11.9
2022-09-28T12:02:42.403Z,11.8
2022-09-28T12:03:49.356Z,11.7
2022-09-28T12:04:56.433Z,11.7
2022-09-28T12:06:03.471Z,11.6
2022-09-28T12:07:10.085Z,11.6
2022-09-28T12:08:17.344Z,11.6
2022-09-28T12:09:24.257Z,11.6
2022-09-28T12:10:31.391Z,11.5
2022-09-28T12:11:38.440Z,11.5
2022-09-28T12:12:45.060Z,11.5
2022-09-28T12:13:52.239Z,11.6
2022-09-28T12:14:59.335Z,11.6
2022-09-28T12:17:16.578Z,11.7
2022-09-28T12:18:20.091Z,11.9
2022-09-28T12:19:27.261Z,12
2022-09-28T12:20:34.753Z,12.1
2022-09-28T12:21:41.413Z,12.2
2022-09-28T12:22:48.572Z,12.2
2022-09-28T12:25:02.238Z,12
2022-09-28T12:26:09.315Z,12
2022-09-28T12:27:16.424Z,12
2022-09-28T12:28:23.490Z,12
2022-09-28T12:29:30.070Z,12
2022-09-28T12:30:37.289Z,12.1
2022-09-28T12:31:44.241Z,12.1
2022-09-28T12:32:51.477Z,12.2
2022-09-28T12:33:58.571Z,12.2
2022-09-28T12:35:05.075Z,12.2
2022-09-28T12:36:12.206Z,12.2
2022-09-28T12:37:19.346Z,12.2
2022-09-28T12:38:26.434Z,12.2
2022-09-28T12:39:53.690Z,12.2
2022-09-28T12:40:40.160Z,12.1
2022-09-28T12:41:48.264Z,12.1
2022-09-28T12:42:55.526Z,12
2022-09-28T12:44:01.495Z,12.1
2022-09-28T12:45:08.031Z,12.1
2022-09-28T12:46:15.195Z,12.2
2022-09-28T12:47:22.201Z,12.2
2022-09-28T12:48:29.354Z,12.2
2022-09-28T12:50:27.287Z,12.2
2022-09-28T12:50:49.906Z,12.2
2022-09-28T12:51:50.243Z,12.2
2022-09-28T12:52:59.412Z,12.2
2022-09-28T12:54:04.314Z,12.2
2022-09-28T12:56:20.866Z,12.2
2022-09-28T12:57:25.184Z,12.2
2022-09-28T12:58:32.252Z,12.2
2022-09-28T12:59:39.370Z,12.2
2022-09-28T13:00:46.444Z,12.1
2022-09-28T13:01:53.034Z,12.2
2022-09-28T13:03:00.254Z,12.2
2022-09-28T13:04:10.230Z,12.2
2022-09-28T13:06:21.479Z,12.1
2022-09-28T13:07:27.974Z,12
2022-09-28T13:08:35.222Z,12
2022-09-28T13:09:42.229Z,12
2022-09-28T13:10:49.322Z,12
2022-09-28T13:11:56.475Z,12
2022-09-28T13:14:10.274Z,12
2022-09-28T13:15:17.288Z,12.1
2022-09-28T13:16:24.396Z,12.1
2022-09-28T13:17:31.483Z,12.2
2022-09-28T13:18:37.564Z,12.2
2022-09-28T13:19:45.194Z,12.2
2022-09-28T13:20:52.214Z,12.3
2022-09-28T13:21:59.389Z,12.3
2022-09-28T13:23:07.003Z,12.4
2022-09-28T13:24:30.953Z,12.4
2022-09-28T13:25:20.214Z,12.4
2022-09-28T13:26:27.236Z,12.3
2022-09-28T13:27:34.361Z,12.3
2022-09-28T13:28:41.518Z,12.3
2022-09-28T13:29:48.120Z,12.2
2022-09-28T13:30:55.451Z,12.2
2022-09-28T13:32:02.373Z,12.2
2022-09-28T13:33:09.425Z,12.2
2022-09-28T13:34:15.961Z,12.2
2022-09-28T13:35:23.008Z,12.2
2022-09-28T13:36:30.202Z,12.2
2022-09-28T13:37:37.310Z,12.3
2022-09-28T13:38:44.384Z,12.3
2022-09-28T13:39:51.460Z,12.3
2022-09-28T13:40:58.093Z,12.4
2022-09-28T13:42:05.152Z,12.4
2022-09-28T13:43:13.678Z,12.5
2022-09-28T13:44:19.524Z,12.5
2022-09-28T13:45:26.016Z,12.6
2022-09-28T13:47:40.214Z,12.6
2022-09-28T13:48:47.329Z,12.5
2022-09-28T13:51:00.996Z,12.5
2022-09-28T13:52:08.094Z,12.5
2022-09-28T13:53:15.233Z,12.5
2022-09-28T13:54:22.325Z,12.5
2022-09-28T13:55:29.415Z,12.4
2022-09-28T13:56:35.982Z,12.4
2022-09-28T13:57:43.085Z,12.4
2022-09-28T13:58:50.349Z,12.3
2022-09-28T13:59:57.312Z,12.3
2022-09-28T14:01:04.497Z,12.2
2022-09-28T14:02:11.644Z,12.2
2022-09-28T14:03:18.202Z,12.2
2022-09-28T14:04:25.774Z,12.1
2022-09-28T14:05:32.348Z,12.1
2022-09-28T14:06:41.808Z,12.1
2022-09-28T14:07:45.994Z,12.1
2022-09-28T14:10:00.566Z,12.3
2022-09-28T14:11:07.296Z,12.3
2022-09-28T14:12:14.406Z,12.4
2022-09-28T14:13:21.045Z,12.4
2022-09-28T14:14:28.144Z,12.5
2022-09-28T14:15:35.312Z,12.6
2022-09-28T14:16:42.377Z,12.5
2022-09-28T14:17:49.409Z,12.5
2022-09-28T14:18:56.223Z,12.5
2022-09-28T14:20:03.162Z,12.4
2022-09-28T14:21:10.212Z,12.4
2022-09-28T14:22:17.353Z,12.5
2022-09-28T14:23:23.893Z,12.5
2022-09-28T14:24:31.050Z,12.5
2022-09-28T14:25:38.095Z,12.6
2022-09-28T14:26:45.178Z,12.6
2022-09-28T14:28:59.475Z,12.7
2022-09-28T14:30:06.355Z,12.7
2022-09-28T14:31:13.301Z,12.7
2022-09-28T14:32:20.291Z,12.7
2022-09-28T14:33:27.325Z,12.7
2022-09-28T14:34:34.059Z,12.7
2022-09-28T14:35:41.111Z,12.7
2022-09-28T14:36:51.087Z,12.7
2022-09-28T14:37:55.248Z,12.7
2022-09-28T14:39:02.383Z,12.7
2022-09-28T14:44:37.407Z,12.5
2022-09-28T14:45:45.110Z,12.5
2022-09-28T14:46:51.237Z,12.4
2022-09-28T14:47:58.166Z,12.4
2022-09-28T14:49:05.211Z,12.3
2022-09-28T14:50:14.709Z,12.3
2022-09-28T14:51:19.523Z,12.3
2022-09-28T14:52:26.385Z,12.3
2022-09-28T14:53:33.186Z,12.3
2022-09-28T14:54:40.286Z,12.3
2022-09-28T14:55:47.404Z,12.3
2022-09-28T14:56:53.966Z,12.3
2022-09-28T14:58:01.214Z,12.3
2022-09-28T14:59:08.184Z,12.3
2022-09-28T15:00:15.294Z,12.3
2022-09-28T15:01:22.346Z,12.2
2022-09-28T15:02:28.958Z,12.2
2022-09-28T15:03:36.197Z,12.2
2022-09-28T15:04:43.230Z,12.2
2022-09-28T15:05:51.714Z,12.2
2022-09-28T15:06:57.473Z,12.2
2022-09-28T15:08:04.022Z,12.2
2022-09-28T15:09:11.219Z,12.2
2022-09-28T15:10:18.193Z,12.2
2022-09-28T15:11:25.374Z,12.2
2022-09-28T15:13:38.977Z,12.2
2022-09-28T15:14:46.274Z,12.2
2022-09-28T15:15:53.350Z,12.1
2022-09-28T15:16:59.746Z,12.1
2022-09-28T15:19:14.030Z,12
2022-09-28T15:20:21.230Z,12
2022-09-28T15:21:28.227Z,12
2022-09-28T15:22:35.256Z,12
2022-09-28T15:23:42.639Z,12
2022-09-28T15:24:48.985Z,12
2022-09-28T15:25:56.089Z,12
2022-09-28T15:27:03.675Z,11.9
2022-09-28T15:28:10.366Z,11.9
2022-09-28T15:29:17.471Z,11.9
2022-09-28T15:30:24.034Z,11.9
2022-09-28T15:31:31.674Z,11.9
2022-09-28T15:32:38.310Z,11.9
2022-09-28T15:33:45.267Z,11.9
2022-09-28T15:34:51.972Z,11.9
2022-09-28T15:35:59.076Z,11.8
2022-09-28T15:37:06.099Z,11.8
2022-09-28T15:38:13.230Z,11.8
2022-09-28T15:39:20.369Z,11.8
2022-09-28T15:40:27.515Z,11.7
2022-09-28T15:41:34.125Z,11.7
2022-09-28T15:42:41.111Z,11.7
2022-09-28T15:43:48.314Z,11.7
2022-09-28T15:46:01.973Z,11.7
2022-09-28T15:47:09.029Z,11.7
2022-09-28T15:48:16.179Z,11.7
2022-09-28T15:49:23.180Z,11.7
2022-09-28T15:50:30.320Z,11.8
2022-09-28T15:51:36.993Z,11.8
2022-09-28T15:52:44.011Z,11.8
2022-09-28T15:53:51.127Z,11.8
2022-09-28T15:54:58.284Z,11.9
2022-09-28T15:56:05.393Z,11.9
2022-09-28T15:57:11.951Z,11.8
2022-09-28T15:58:19.038Z,11.8
2022-09-28T15:59:26.181Z,11.9
2022-09-28T16:00:33.197Z,11.9
2022-09-28T16:01:40.481Z,11.9
2022-09-28T16:02:47.096Z,11.8
2022-09-28T16:03:54.126Z,11.8
2022-09-28T16:05:01.245Z,11.8
2022-09-28T16:06:08.392Z,11.8
2022-09-28T16:07:15.358Z,11.8
2022-09-28T16:08:23.145Z,11.8
2022-09-28T16:09:29.129Z,11.8
2022-09-28T16:10:36.222Z,11.9
2022-09-28T16:11:43.321Z,11.9
2022-09-28T16:12:50.404Z,11.9
2022-09-28T16:13:57.043Z,11.9
2022-09-28T16:15:04.038Z,11.9
2022-09-28T16:17:18.316Z,11.8
2022-09-28T16:18:25.375Z,11.8
2022-09-28T16:19:32.148Z,11.7
2022-09-28T16:20:39.127Z,11.7
2022-09-28T16:21:46.157Z,11.7
2022-09-28T16:22:53.307Z,11.7
2022-09-28T16:24:00.447Z,11.7
2022-09-28T16:25:07.194Z,11.6
2022-09-28T16:26:14.097Z,11.6
2022-09-28T16:27:21.260Z,11.6
2022-09-28T16:28:32.420Z,11.6
2022-09-28T16:29:35.403Z,11.6
2022-09-28T16:30:42.674Z,11.6
2022-09-28T16:31:49.122Z,11.6
2022-09-28T16:32:56.171Z,11.6
2022-09-28T16:34:03.287Z,11.6